createdAt,value
2022-08-19T00:01:00.915Z,95.1
2022-08-19T00:02:17.210Z,95.1
2022-08-19T00:03:32.514Z,95.2
2022-08-19T00:04:48.811Z,95.2
2022-08-19T00:06:05.122Z,95.3
2022-08-19T00:07:21.401Z,95.4
2022-08-19T00:08:37.706Z,95.7
2022-08-19T00:09:54.001Z,96
2022-08-19T00:11:10.276Z,96.2
2022-08-19T00:12:26.587Z,96.3
2022-08-19T00:13:42.881Z,96.4
2022-08-19T00:14:59.162Z,96.5
2022-08-19T00:16:15.459Z,96.7
2022-08-19T00:17:31.749Z,96.5
2022-08-19T00:20:04.334Z,96.9
2022-08-19T00:21:19.663Z,97.1
2022-08-19T00:22:35.952Z,97.1
2022-08-19T00:23:52.243Z,97.3
2022-08-19T00:25:08.545Z,97.5
2022-08-19T00:26:24.835Z,97.7
2022-08-19T00:28:57.423Z,98.9
2022-08-19T00:30:13.708Z,99
2022-08-19T00:31:30.008Z,99.5
2022-08-19T00:32:46.294Z,99.8
2022-08-19T00:34:02.598Z,99.9
2022-08-19T00:36:35.184Z,100
2022-08-19T00:37:50.499Z,100
2022-08-19T00:39:05.808Z,100
2022-08-19T00:40:22.092Z,100
2022-08-19T00:41:38.389Z,100
2022-08-19T00:42:54.681Z,100
2022-08-19T00:44:10.972Z,100
2022-08-19T00:45:27.282Z,100
2022-08-19T00:47:59.861Z,100
2022-08-19T00:49:16.162Z,100
2022-08-19T00:50:32.461Z,100
2022-08-19T00:51:48.754Z,100
2022-08-19T00:53:05.044Z,100
2022-08-19T00:54:21.333Z,100
2022-08-19T00:55:36.639Z,100
2022-08-19T00:56:52.946Z,100
2022-08-19T00:58:09.239Z,100
2022-08-19T00:59:25.528Z,100
2022-08-19T01:00:41.819Z,100
2022-08-19T01:01:58.120Z,100
2022-08-19T01:03:14.410Z,100
2022-08-19T01:04:30.699Z,100
2022-08-19T01:07:02.317Z,100
2022-08-19T01:08:18.597Z,100
2022-08-19T01:09:33.926Z,100
2022-08-19T01:10:50.212Z,100
2022-08-19T01:12:06.502Z,100
2022-08-19T01:13:22.790Z,100
2022-08-19T01:14:38.113Z,100
2022-08-19T01:15:53.422Z,100
2022-08-19T01:17:09.728Z,100
2022-08-19T01:18:26.009Z,100
2022-08-19T01:19:42.300Z,100
2022-08-19T01:22:14.900Z,100
2022-08-19T01:23:31.182Z,100
2022-08-19T01:24:47.474Z,100
2022-08-19T01:26:03.769Z,100
2022-08-19T01:27:20.062Z,100
2022-08-19T01:28:36.364Z,100
2022-08-19T01:29:52.666Z,100
2022-08-19T01:31:08.957Z,100
2022-08-19T01:32:24.265Z,100
2022-08-19T01:33:40.562Z,100
2022-08-19T01:34:56.844Z,100
2022-08-19T01:36:12.170Z,100
2022-08-19T01:37:28.466Z,100
2022-08-19T01:38:44.758Z,100
2022-08-19T01:40:01.045Z,100
2022-08-19T01:41:17.354Z,100
2022-08-19T01:42:33.641Z,100
2022-08-19T01:43:49.940Z,100
2022-08-19T01:45:06.229Z,100
2022-08-19T01:46:22.513Z,100
2022-08-19T01:47:38.804Z,100
2022-08-19T01:48:55.109Z,100
2022-08-19T01:50:11.400Z,100
2022-08-19T01:51:27.687Z,100
2022-08-19T01:52:43.008Z,100
2022-08-19T01:53:59.309Z,100
2022-08-19T01:55:15.588Z,100
2022-08-19T01:56:31.884Z,100
2022-08-19T01:57:48.183Z,100
2022-08-19T01:59:04.481Z,100
2022-08-19T02:00:20.771Z,100
2022-08-19T02:01:37.065Z,100
2022-08-19T02:02:53.365Z,100
2022-08-19T02:04:09.654Z,100
2022-08-19T02:05:25.940Z,100
2022-08-19T02:06:42.233Z,100
2022-08-19T02:07:58.546Z,100
2022-08-19T02:09:13.843Z,100
2022-08-19T02:10:30.144Z,100
2022-08-19T02:11:46.432Z,100
2022-08-19T02:13:02.730Z,100
2022-08-19T02:14:19.032Z,100
2022-08-19T02:15:35.316Z,100
2022-08-19T02:16:51.607Z,100
2022-08-19T02:18:07.907Z,100
2022-08-19T02:19:24.191Z,100
2022-08-19T02:20:40.491Z,100
2022-08-19T02:23:13.081Z,100
2022-08-19T02:24:29.367Z,100
2022-08-19T02:25:44.684Z,100
2022-08-19T02:27:00.979Z,100
2022-08-19T02:28:17.283Z,100
2022-08-19T02:29:33.559Z,100
2022-08-19T02:30:49.865Z,100
2022-08-19T02:32:06.149Z,100
2022-08-19T02:33:22.443Z,100
2022-08-19T02:34:38.751Z,100
2022-08-19T02:35:55.045Z,100
2022-08-19T02:37:11.320Z,100
2022-08-19T02:38:27.619Z,100
2022-08-19T02:39:43.920Z,100
2022-08-19T02:41:00.210Z,100
2022-08-19T02:42:16.513Z,100
2022-08-19T02:43:31.813Z,100
2022-08-19T02:44:48.105Z,100
2022-08-19T02:46:04.401Z,100
2022-08-19T02:47:20.706Z,100
2022-08-19T02:48:36.986Z,100
2022-08-19T02:49:53.294Z,100
2022-08-19T02:51:09.579Z,100
2022-08-19T02:52:25.868Z,100
2022-08-19T02:53:42.171Z,100
2022-08-19T02:54:58.474Z,100
2022-08-19T02:56:14.769Z,100
2022-08-19T02:57:31.044Z,100
2022-08-19T02:58:47.340Z,100
2022-08-19T03:00:02.661Z,100
2022-08-19T03:01:18.948Z,100
2022-08-19T03:02:35.249Z,100
2022-08-19T03:03:51.543Z,100
2022-08-19T03:05:07.825Z,100
2022-08-19T03:06:24.125Z,100
2022-08-19T03:07:40.426Z,100
2022-08-19T03:08:56.708Z,100
2022-08-19T03:10:13.000Z,100
2022-08-19T03:11:29.299Z,100
2022-08-19T03:12:45.607Z,100
2022-08-19T03:14:01.900Z,100
2022-08-19T03:15:18.182Z,100
2022-08-19T03:16:33.506Z,100
2022-08-19T03:19:06.076Z,100
2022-08-19T03:20:22.375Z,100
2022-08-19T03:21:38.664Z,100
2022-08-19T03:22:54.957Z,100
2022-08-19T03:24:11.260Z,100
2022-08-19T03:25:27.558Z,100
2022-08-19T03:26:43.856Z,100
2022-08-19T03:28:00.134Z,100
2022-08-19T03:29:16.430Z,100
2022-08-19T03:30:32.722Z,100
2022-08-19T03:31:49.030Z,100
2022-08-19T03:33:04.343Z,100
2022-08-19T03:34:20.584Z,100
2022-08-19T03:35:36.865Z,100
2022-08-19T03:36:53.169Z,100
2022-08-19T03:38:09.405Z,100
2022-08-19T03:39:25.652Z,100
2022-08-19T03:40:41.887Z,100
2022-08-19T03:41:58.141Z,100
2022-08-19T03:43:14.395Z,100
2022-08-19T03:44:30.629Z,100
2022-08-19T03:45:46.876Z,100
2022-08-19T03:47:03.101Z,100
2022-08-19T03:48:19.352Z,100
2022-08-19T03:49:34.606Z,100
2022-08-19T03:50:50.854Z,100
2022-08-19T03:52:07.082Z,100
2022-08-19T03:53:23.316Z,100
2022-08-19T03:54:39.572Z,100
2022-08-19T03:57:12.043Z,100
2022-08-19T03:58:28.286Z,100
2022-08-19T03:59:44.523Z,100
2022-08-19T04:02:17.006Z,100
2022-08-19T04:03:33.249Z,100
2022-08-19T04:04:49.486Z,100
2022-08-19T04:06:04.750Z,100
2022-08-19T04:07:20.971Z,100
2022-08-19T04:08:37.212Z,100
2022-08-19T04:09:53.450Z,100
2022-08-19T04:11:09.695Z,100
2022-08-19T04:12:25.947Z,100
2022-08-19T04:13:42.180Z,100
2022-08-19T04:14:58.422Z,100
2022-08-19T04:16:14.666Z,100
2022-08-19T04:17:30.896Z,100
2022-08-19T04:18:47.135Z,100
2022-08-19T04:20:03.375Z,100
2022-08-19T04:21:19.619Z,100
2022-08-19T04:22:34.875Z,100
2022-08-19T04:23:51.111Z,100
2022-08-19T04:25:07.351Z,100
2022-08-19T04:26:23.595Z,100
2022-08-19T04:27:39.833Z,100
2022-08-19T04:28:56.070Z,100
2022-08-19T04:30:12.315Z,100
2022-08-19T04:31:28.555Z,100
2022-08-19T04:32:44.806Z,100
2022-08-19T04:34:01.045Z,100
2022-08-19T04:35:17.275Z,100
2022-08-19T04:36:33.519Z,100
2022-08-19T04:37:49.757Z,100
2022-08-19T04:40:21.251Z,100
2022-08-19T04:41:37.494Z,100
2022-08-19T04:42:53.735Z,100
2022-08-19T04:44:09.981Z,100
2022-08-19T04:45:26.211Z,100
2022-08-19T04:46:42.457Z,100
2022-08-19T04:47:58.695Z,100
2022-08-19T04:49:14.942Z,100
2022-08-19T04:50:31.173Z,100
2022-08-19T04:51:47.424Z,100
2022-08-19T04:53:03.663Z,100
2022-08-19T04:54:19.886Z,100
2022-08-19T04:55:35.146Z,100
2022-08-19T04:56:51.392Z,100
2022-08-19T04:58:07.621Z,100
2022-08-19T04:59:23.865Z,100
2022-08-19T05:00:40.106Z,100
2022-08-19T05:01:56.342Z,100
2022-08-19T05:03:12.582Z,100
2022-08-19T05:04:28.822Z,100
2022-08-19T05:05:45.067Z,100
2022-08-19T05:07:01.310Z,100
2022-08-19T05:08:17.550Z,100
2022-08-19T05:09:33.794Z,100
2022-08-19T05:10:50.041Z,100
2022-08-19T05:12:06.279Z,100
2022-08-19T05:13:21.535Z,100
2022-08-19T05:14:37.757Z,100
2022-08-19T05:15:53.997Z,100
2022-08-19T05:18:26.479Z,100
2022-08-19T05:19:42.728Z,100
2022-08-19T05:20:58.966Z,100
2022-08-19T05:22:15.216Z,100
2022-08-19T05:23:31.450Z,100
2022-08-19T05:24:47.692Z,100
2022-08-19T05:26:03.931Z,100
2022-08-19T05:27:20.163Z,100
2022-08-19T05:28:36.417Z,100
2022-08-19T05:29:51.660Z,100
2022-08-19T05:31:07.912Z,100
2022-08-19T05:32:24.145Z,100
2022-08-19T05:33:40.395Z,100
2022-08-19T05:34:56.634Z,100
2022-08-19T05:36:12.860Z,100
2022-08-19T05:37:29.106Z,100
2022-08-19T05:38:45.338Z,100
2022-08-19T05:40:01.592Z,100
2022-08-19T05:41:17.831Z,100
2022-08-19T05:42:34.056Z,100
2022-08-19T05:43:50.304Z,100
2022-08-19T05:45:06.539Z,100
2022-08-19T05:46:21.810Z,100
2022-08-19T05:48:54.275Z,100
2022-08-19T05:50:10.527Z,100
2022-08-19T05:51:25.791Z,100
2022-08-19T05:52:42.033Z,100
2022-08-19T05:53:58.273Z,100
2022-08-19T05:55:14.512Z,100
2022-08-19T05:56:30.744Z,100
2022-08-19T05:57:46.981Z,100
2022-08-19T05:59:03.226Z,100
2022-08-19T06:00:19.458Z,100
2022-08-19T06:01:35.711Z,100
2022-08-19T06:02:51.953Z,100
2022-08-19T06:04:08.176Z,100
2022-08-19T06:05:24.427Z,100
2022-08-19T06:06:40.656Z,100
2022-08-19T06:07:55.932Z,100
2022-08-19T06:09:12.161Z,100
2022-08-19T06:11:44.646Z,100
2022-08-19T06:13:00.891Z,100
2022-08-19T06:14:17.116Z,100
2022-08-19T06:15:33.364Z,100
2022-08-19T06:16:49.595Z,100
2022-08-19T06:18:05.846Z,100
2022-08-19T06:19:22.078Z,100
2022-08-19T06:20:38.329Z,100
2022-08-19T06:21:54.565Z,100
2022-08-19T06:23:10.806Z,100
2022-08-19T06:24:26.050Z,100
2022-08-19T06:25:42.294Z,100
2022-08-19T06:26:58.548Z,100
2022-08-19T06:28:14.778Z,100
2022-08-19T06:29:31.026Z,100
2022-08-19T06:30:47.262Z,100
2022-08-19T06:32:03.490Z,100
2022-08-19T06:33:19.744Z,100
2022-08-19T06:34:35.987Z,100
2022-08-19T06:35:52.218Z,100
2022-08-19T06:37:08.457Z,100
2022-08-19T06:38:24.690Z,100
2022-08-19T06:39:40.941Z,100
2022-08-19T06:40:57.177Z,100
2022-08-19T06:42:12.438Z,100
2022-08-19T06:43:28.667Z,100
2022-08-19T06:44:44.925Z,100
2022-08-19T06:46:01.167Z,100
2022-08-19T06:47:17.396Z,100
2022-08-19T06:48:33.644Z,100
2022-08-19T06:49:49.886Z,100
2022-08-19T06:51:06.110Z,100
2022-08-19T06:52:22.348Z,100
2022-08-19T06:53:38.591Z,100
2022-08-19T06:54:54.835Z,100
2022-08-19T06:56:11.082Z,100
2022-08-19T06:57:27.323Z,100
2022-08-19T06:58:42.579Z,100
2022-08-19T06:59:58.825Z,100
2022-08-19T07:01:15.066Z,100
2022-08-19T07:02:31.300Z,100
2022-08-19T07:03:47.531Z,100
2022-08-19T07:05:03.768Z,100
2022-08-19T07:06:20.016Z,100
2022-08-19T07:07:36.256Z,100
2022-08-19T07:08:52.503Z,100
2022-08-19T07:10:08.730Z,100
2022-08-19T07:11:24.974Z,100
2022-08-19T07:12:41.219Z,100
2022-08-19T07:13:57.450Z,100
2022-08-19T07:15:12.715Z,100
2022-08-19T07:16:28.963Z,100
2022-08-19T07:17:45.192Z,100
2022-08-19T07:19:01.435Z,100
2022-08-19T07:20:17.673Z,100
2022-08-19T07:21:33.916Z,100
2022-08-19T07:22:50.153Z,100
2022-08-19T07:24:06.389Z,100
2022-08-19T07:25:22.640Z,100
2022-08-19T07:27:55.116Z,100
2022-08-19T07:29:11.355Z,100
2022-08-19T07:30:27.604Z,100
2022-08-19T07:31:42.853Z,100
2022-08-19T07:32:59.083Z,100
2022-08-19T07:34:15.320Z,100
2022-08-19T07:35:31.567Z,100
2022-08-19T07:38:04.044Z,100
2022-08-19T07:39:20.289Z,100
2022-08-19T07:40:36.521Z,100
2022-08-19T07:41:52.771Z,100
2022-08-19T07:43:09.010Z,100
2022-08-19T07:44:25.248Z,100
2022-08-19T07:45:41.483Z,100
2022-08-19T07:46:57.723Z,100
2022-08-19T07:48:12.983Z,100
2022-08-19T07:49:29.232Z,100
2022-08-19T07:50:45.469Z,100
2022-08-19T07:52:01.702Z,100
2022-08-19T07:53:17.946Z,100
2022-08-19T07:54:34.194Z,100
2022-08-19T07:55:50.438Z,100
2022-08-19T07:57:06.662Z,100
2022-08-19T07:58:22.910Z,100
2022-08-19T07:59:39.156Z,100
2022-08-19T08:00:55.385Z,100
2022-08-19T08:02:11.626Z,100
2022-08-19T08:03:27.876Z,100
2022-08-19T08:04:43.121Z,100
2022-08-19T08:05:59.362Z,100
2022-08-19T08:07:15.610Z,100
2022-08-19T08:08:31.847Z,100
2022-08-19T08:09:48.089Z,100
2022-08-19T08:11:04.318Z,100
2022-08-19T08:12:20.572Z,100
2022-08-19T08:13:36.809Z,100
2022-08-19T08:14:53.044Z,100
2022-08-19T08:16:09.290Z,100
2022-08-19T08:17:25.520Z,100
2022-08-19T08:18:41.776Z,100
2022-08-19T08:21:14.248Z,100
2022-08-19T08:22:29.498Z,100
2022-08-19T08:23:45.736Z,100
2022-08-19T08:25:01.982Z,100
2022-08-19T08:26:18.215Z,100
2022-08-19T08:27:34.471Z,100
2022-08-19T08:28:50.706Z,100
2022-08-19T08:30:06.944Z,100
2022-08-19T08:31:23.180Z,100
2022-08-19T08:32:39.421Z,100
2022-08-19T08:33:55.664Z,100
2022-08-19T08:35:11.904Z,100
2022-08-19T08:36:28.140Z,100
2022-08-19T08:37:44.377Z,100
2022-08-19T08:38:59.633Z,100
2022-08-19T08:40:15.876Z,100
2022-08-19T08:41:32.124Z,100
2022-08-19T08:44:04.603Z,100
2022-08-19T08:45:20.846Z,100
2022-08-19T08:46:37.086Z,100
2022-08-19T08:47:53.317Z,100
2022-08-19T08:49:09.566Z,100
2022-08-19T08:50:25.802Z,100
2022-08-19T08:51:42.051Z,100
2022-08-19T08:52:58.277Z,100
2022-08-19T08:54:14.512Z,100
2022-08-19T08:55:29.768Z,100
2022-08-19T08:56:46.024Z,100
2022-08-19T08:58:02.262Z,100
2022-08-19T08:59:18.504Z,100
2022-08-19T09:00:34.749Z,100
2022-08-19T09:01:50.982Z,100
2022-08-19T09:03:07.227Z,100
2022-08-19T09:04:23.462Z,100
2022-08-19T09:05:39.696Z,100
2022-08-19T09:06:55.936Z,100
2022-08-19T09:08:12.169Z,100
2022-08-19T09:09:28.412Z,100
2022-08-19T09:10:44.662Z,100
2022-08-19T09:13:16.163Z,100
2022-08-19T09:14:32.388Z,100
2022-08-19T09:15:48.626Z,100
2022-08-19T09:17:04.882Z,100
2022-08-19T09:18:21.123Z,100
2022-08-19T09:19:37.367Z,100
2022-08-19T09:20:53.596Z,100
2022-08-19T09:22:09.833Z,100
2022-08-19T09:23:26.069Z,100
2022-08-19T09:24:42.312Z,100
2022-08-19T09:25:58.559Z,100
2022-08-19T09:27:14.798Z,100
2022-08-19T09:28:30.062Z,100
2022-08-19T09:29:46.294Z,100
2022-08-19T09:31:02.537Z,100
2022-08-19T09:32:18.777Z,100
2022-08-19T09:33:35.009Z,100
2022-08-19T09:34:51.256Z,100
2022-08-19T09:36:07.498Z,100
2022-08-19T09:37:23.724Z,100
2022-08-19T09:38:39.981Z,100
2022-08-19T09:39:56.222Z,100
2022-08-19T09:41:12.448Z,100
2022-08-19T09:42:28.702Z,100
2022-08-19T09:43:44.932Z,100
2022-08-19T09:45:00.190Z,100
2022-08-19T09:46:16.426Z,100
2022-08-19T09:47:32.672Z,100
2022-08-19T09:48:48.909Z,100
2022-08-19T09:50:05.149Z,100
2022-08-19T09:51:21.389Z,100
2022-08-19T09:52:37.633Z,100
2022-08-19T09:53:53.863Z,100
2022-08-19T09:56:26.346Z,100
2022-08-19T09:57:42.583Z,100
2022-08-19T10:00:15.076Z,100
2022-08-19T10:01:30.328Z,100
2022-08-19T10:02:46.571Z,100
2022-08-19T10:04:02.816Z,100
2022-08-19T10:05:19.057Z,100
2022-08-19T10:06:34.317Z,100
2022-08-19T10:07:50.542Z,100
2022-08-19T10:09:06.787Z,100
2022-08-19T10:10:23.025Z,100
2022-08-19T10:11:39.261Z,100
2022-08-19T10:12:55.514Z,100
2022-08-19T10:14:11.742Z,100
2022-08-19T10:15:27.995Z,100
2022-08-19T10:16:44.224Z,100
2022-08-19T10:18:00.465Z,100
2022-08-19T10:19:16.000Z,100
2022-08-19T10:20:32.952Z,100
2022-08-19T10:21:49.186Z,100
2022-08-19T10:23:04.449Z,100
2022-08-19T10:24:20.697Z,100
2022-08-19T10:25:36.926Z,100
2022-08-19T10:26:53.171Z,100
2022-08-19T10:28:09.413Z,100
2022-08-19T10:29:25.651Z,100
2022-08-19T10:30:41.887Z,100
2022-08-19T10:31:58.138Z,100
2022-08-19T10:33:14.377Z,99.9
2022-08-19T10:34:30.618Z,100
2022-08-19T10:35:46.859Z,99.9
2022-08-19T10:37:03.080Z,99.4
2022-08-19T10:38:19.341Z,99.2
2022-08-19T10:39:34.589Z,99.8
2022-08-19T10:40:50.826Z,99.8
2022-08-19T10:42:07.076Z,99.4
2022-08-19T10:43:23.299Z,99.4
2022-08-19T10:44:39.542Z,99.3
2022-08-19T10:45:55.779Z,98.9
2022-08-19T10:47:12.022Z,99.3
2022-08-19T10:48:28.269Z,99.2
2022-08-19T10:49:44.501Z,98.7
2022-08-19T10:51:00.754Z,98.4
2022-08-19T10:52:16.996Z,98.4
2022-08-19T10:53:33.235Z,98.8
2022-08-19T10:54:49.468Z,98.7
2022-08-19T10:56:04.713Z,99
2022-08-19T10:57:20.960Z,98.9
2022-08-19T10:58:37.195Z,98.2
2022-08-19T10:59:53.451Z,98.6
2022-08-19T11:01:09.681Z,98.3
2022-08-19T11:02:25.931Z,98.8
2022-08-19T11:03:42.162Z,98.4
2022-08-19T11:04:58.406Z,96.6
2022-08-19T11:06:14.637Z,96.7
2022-08-19T11:07:30.886Z,97.5
2022-08-19T11:08:47.133Z,97.8
2022-08-19T11:10:03.359Z,97.1
2022-08-19T11:11:19.599Z,96.9
2022-08-19T11:12:34.857Z,96.5
2022-08-19T11:13:51.110Z,96.1
2022-08-19T11:15:07.336Z,97.2
2022-08-19T11:16:23.589Z,96.5
2022-08-19T11:17:39.822Z,96.8
2022-08-19T11:18:56.066Z,97.4
2022-08-19T11:20:12.294Z,97.8
2022-08-19T11:21:28.541Z,97.6
2022-08-19T11:22:44.778Z,94.9
2022-08-19T11:24:01.019Z,95.7
2022-08-19T11:25:17.252Z,95
2022-08-19T11:26:33.506Z,96
2022-08-19T11:27:49.744Z,96.8
2022-08-19T11:29:05.002Z,95.8
2022-08-19T11:30:21.236Z,96.4
2022-08-19T11:31:37.469Z,95
2022-08-19T11:32:53.715Z,96.2
2022-08-19T11:34:09.963Z,96.2
2022-08-19T11:35:26.197Z,95.9
2022-08-19T11:36:42.444Z,95.1
2022-08-19T11:37:58.688Z,94.8
2022-08-19T11:39:14.927Z,94
2022-08-19T11:40:31.159Z,93.7
2022-08-19T11:41:47.390Z,93
2022-08-19T11:43:03.629Z,94.4
2022-08-19T11:44:19.884Z,94.4
2022-08-19T11:46:51.379Z,94.2
2022-08-19T11:48:07.621Z,93.5
2022-08-19T11:49:23.846Z,93.3
2022-08-19T11:50:40.100Z,94.2
2022-08-19T11:51:56.345Z,94.5
2022-08-19T11:53:12.578Z,94
2022-08-19T11:54:28.816Z,93.7
2022-08-19T11:55:45.060Z,94.2
2022-08-19T11:57:01.304Z,93.7
2022-08-19T11:58:17.531Z,93.6
2022-08-19T11:59:33.785Z,92.9
2022-08-19T12:00:50.016Z,92.4
2022-08-19T12:03:21.522Z,93.4
2022-08-19T12:04:37.752Z,92.3
2022-08-19T12:05:54.002Z,92.3
2022-08-19T12:07:10.241Z,91.9
2022-08-19T12:08:26.470Z,91.1
2022-08-19T12:09:42.703Z,90
2022-08-19T12:10:58.949Z,90.8
2022-08-19T12:12:15.189Z,91.1
2022-08-19T12:13:31.439Z,88.5
2022-08-19T12:14:47.665Z,89.4
2022-08-19T12:17:20.160Z,89.4
2022-08-19T12:18:35.412Z,89.4
2022-08-19T12:19:51.643Z,89
2022-08-19T12:21:07.894Z,88.3
2022-08-19T12:22:24.135Z,88.3
2022-08-19T12:23:40.377Z,88
2022-08-19T12:24:56.614Z,87.6
2022-08-19T12:26:12.845Z,88
2022-08-19T12:27:29.099Z,88.2
2022-08-19T12:28:45.332Z,88.1
2022-08-19T12:30:01.565Z,88.4
2022-08-19T12:31:17.816Z,88.4
2022-08-19T12:32:34.052Z,86.8
2022-08-19T12:33:50.281Z,87.4
2022-08-19T12:35:05.553Z,88.1
2022-08-19T12:36:21.793Z,87.2
2022-08-19T12:37:38.038Z,86.2
2022-08-19T12:38:54.271Z,85.7
2022-08-19T12:40:10.499Z,85.9
2022-08-19T12:41:26.753Z,86.2
2022-08-19T12:42:42.983Z,87.2
2022-08-19T12:43:59.223Z,86.5
2022-08-19T12:45:15.466Z,84.7
2022-08-19T12:46:31.699Z,84.4
2022-08-19T12:47:47.939Z,85.5
2022-08-19T12:49:04.183Z,85.9
2022-08-19T12:50:20.421Z,85.7
2022-08-19T12:51:35.697Z,85.3
2022-08-19T12:52:51.924Z,85.8
2022-08-19T12:54:08.174Z,86
2022-08-19T12:55:24.408Z,85.2
2022-08-19T12:56:40.642Z,85.8
2022-08-19T12:57:56.897Z,85.3
2022-08-19T12:59:13.135Z,84.9
2022-08-19T13:00:29.376Z,85.2
2022-08-19T13:01:45.613Z,85
2022-08-19T13:03:01.855Z,85
2022-08-19T13:04:18.091Z,86.3
2022-08-19T13:05:34.330Z,87
2022-08-19T13:06:50.568Z,84.6
2022-08-19T13:08:05.835Z,84.7
2022-08-19T13:09:22.058Z,86.8
2022-08-19T13:10:38.313Z,85.3
2022-08-19T13:11:54.548Z,85.6
2022-08-19T13:13:10.778Z,84.4
2022-08-19T13:14:27.023Z,85.4
2022-08-19T13:15:43.256Z,85.5
2022-08-19T13:16:59.498Z,84.5
2022-08-19T13:18:15.739Z,85.7
2022-08-19T13:19:31.980Z,85.9
2022-08-19T13:20:48.232Z,86.8
2022-08-19T13:22:04.463Z,86.9
2022-08-19T13:23:20.716Z,84.1
2022-08-19T13:24:35.961Z,87.2
2022-08-19T13:25:52.196Z,85
2022-08-19T13:27:08.442Z,87.1
2022-08-19T13:28:24.688Z,84.7
2022-08-19T13:29:40.921Z,84.9
2022-08-19T13:30:57.155Z,85.8
2022-08-19T13:32:13.394Z,85.7
2022-08-19T13:33:29.643Z,85.9
2022-08-19T13:34:45.889Z,86.5
2022-08-19T13:36:02.123Z,85.7
2022-08-19T13:37:18.365Z,87.3
2022-08-19T13:38:34.613Z,86.8
2022-08-19T13:41:07.088Z,87.2
2022-08-19T13:42:22.352Z,88.3
2022-08-19T13:43:38.587Z,87.4
2022-08-19T13:44:54.831Z,87
2022-08-19T13:46:11.056Z,86.6
2022-08-19T13:47:27.298Z,88
2022-08-19T13:48:43.545Z,88.2
2022-08-19T13:49:59.778Z,88.2
2022-08-19T13:51:16.021Z,88
2022-08-19T13:52:32.256Z,87.7
2022-08-19T13:53:48.494Z,87
2022-08-19T13:56:20.973Z,85.7
2022-08-19T13:57:37.234Z,86.5
2022-08-19T13:58:52.489Z,86.2
2022-08-19T14:00:08.724Z,87.3
2022-08-19T14:01:24.960Z,86
2022-08-19T14:03:57.435Z,85.5
2022-08-19T14:05:13.670Z,85.7
2022-08-19T14:06:28.940Z,85.5
2022-08-19T14:07:44.190Z,85.8
2022-08-19T14:09:00.444Z,85.7
2022-08-19T14:10:16.687Z,86.7
2022-08-19T14:11:32.910Z,86.3
2022-08-19T14:12:49.156Z,86.2
2022-08-19T14:14:05.394Z,86.2
2022-08-19T14:15:21.638Z,87
2022-08-19T14:16:37.882Z,87
2022-08-19T14:17:54.122Z,86.8
2022-08-19T14:19:10.357Z,85.8
2022-08-19T14:20:25.623Z,86.5
2022-08-19T14:21:40.890Z,86.3
2022-08-19T14:22:57.116Z,87.8
2022-08-19T14:24:13.354Z,87.6
2022-08-19T14:25:29.598Z,85.9
2022-08-19T14:26:45.839Z,86.8
2022-08-19T14:28:02.082Z,86.7
2022-08-19T14:29:18.000Z,86.5
2022-08-19T14:30:34.561Z,86.6
2022-08-19T14:31:50.808Z,86.6
2022-08-19T14:34:23.285Z,86.2
2022-08-19T14:35:39.528Z,86.3
2022-08-19T14:36:55.772Z,86
2022-08-19T14:38:11.028Z,86.8
2022-08-19T14:39:27.268Z,87
2022-08-19T14:41:59.744Z,87.2
2022-08-19T14:43:14.993Z,85.7
2022-08-19T14:44:30.264Z,85.6
2022-08-19T14:45:46.489Z,85.1
2022-08-19T14:47:02.740Z,86.3
2022-08-19T14:49:35.213Z,85.8
2022-08-19T14:50:51.460Z,84.8
2022-08-19T14:52:07.707Z,84.1
2022-08-19T14:53:23.946Z,84.4
2022-08-19T14:54:40.181Z,84.5
2022-08-19T14:57:12.661Z,83.8
2022-08-19T14:58:28.896Z,83.8
2022-08-19T14:59:44.157Z,83.8
2022-08-19T15:00:59.421Z,83.3
2022-08-19T15:02:15.649Z,84.7
2022-08-19T15:03:31.898Z,82.5
2022-08-19T15:04:48.134Z,82.8
2022-08-19T15:06:04.380Z,81.9
2022-08-19T15:07:20.615Z,82.9
2022-08-19T15:08:36.868Z,82.8
2022-08-19T15:09:53.099Z,83.3
2022-08-19T15:12:25.574Z,83
2022-08-19T15:13:41.810Z,83.6
2022-08-19T15:14:58.060Z,83.5
2022-08-19T15:16:14.293Z,81.7
2022-08-19T15:17:29.563Z,82
2022-08-19T15:20:02.032Z,83.9
2022-08-19T15:21:18.283Z,82.3
2022-08-19T15:22:34.525Z,81.7
2022-08-19T15:23:50.755Z,83.3
2022-08-19T15:25:06.993Z,83
2022-08-19T15:27:39.475Z,83
2022-08-19T15:28:55.712Z,84
2022-08-19T15:30:11.956Z,83.7
2022-08-19T15:31:28.187Z,83.9
2022-08-19T15:32:44.442Z,84
2022-08-19T15:35:15.931Z,84.1
2022-08-19T15:36:32.164Z,85
2022-08-19T15:37:48.415Z,84.5
2022-08-19T15:39:04.651Z,84
2022-08-19T15:40:20.894Z,84.1
2022-08-19T15:41:37.127Z,83.3
2022-08-19T15:42:53.374Z,83.6
2022-08-19T15:44:09.612Z,82.9
2022-08-19T15:45:25.847Z,83.5
2022-08-19T15:46:42.091Z,82.4
2022-08-19T15:47:58.333Z,82.1
2022-08-19T15:49:14.575Z,81.5
2022-08-19T15:50:30.817Z,81.8
2022-08-19T15:51:46.060Z,83.6
2022-08-19T15:53:02.311Z,82.9
2022-08-19T15:54:17.573Z,83
2022-08-19T15:55:32.838Z,83.3
2022-08-19T15:56:49.078Z,83.6
2022-08-19T15:58:05.312Z,83.9
2022-08-19T15:59:21.545Z,83.4
2022-08-19T16:00:37.795Z,84.4
2022-08-19T16:01:54.024Z,84.4
2022-08-19T16:03:10.269Z,82.8
2022-08-19T16:04:26.513Z,83.6
2022-08-19T16:05:42.758Z,83.3
2022-08-19T16:06:59.003Z,83.8
2022-08-19T16:08:14.246Z,85.2
2022-08-19T16:09:29.515Z,86.2
2022-08-19T16:10:45.746Z,84.9
2022-08-19T16:13:18.230Z,85.2
2022-08-19T16:14:34.459Z,84.8
2022-08-19T16:15:50.715Z,84.1
2022-08-19T16:17:06.953Z,83.5
2022-08-19T16:18:23.191Z,83.8
2022-08-19T16:19:39.428Z,84.3
2022-08-19T16:20:55.677Z,83
2022-08-19T16:22:11.915Z,83.6
2022-08-19T16:23:28.154Z,83.8
2022-08-19T16:24:44.392Z,83.8
2022-08-19T16:25:59.652Z,83.8
2022-08-19T16:28:32.116Z,85.5
2022-08-19T16:29:48.368Z,84.9
2022-08-19T16:31:03.617Z,85
2022-08-19T16:32:18.874Z,85.7
2022-08-19T16:33:35.118Z,83.8
2022-08-19T16:34:51.354Z,82.8
2022-08-19T16:36:07.606Z,83.8
2022-08-19T16:37:23.838Z,83.5
2022-08-19T16:38:40.077Z,82.3
2022-08-19T16:39:56.322Z,82.7
2022-08-19T16:41:12.567Z,82
2022-08-19T16:42:28.807Z,81.2
2022-08-19T16:43:45.044Z,82
2022-08-19T16:45:00.309Z,80.9
2022-08-19T16:46:15.556Z,81.4
2022-08-19T16:47:31.804Z,81.4
2022-08-19T16:48:48.050Z,82.4
2022-08-19T16:50:04.281Z,81.5
2022-08-19T16:51:20.514Z,81.6
2022-08-19T16:52:36.756Z,81.8
2022-08-19T16:53:52.996Z,81.5
2022-08-19T16:55:09.244Z,81.9
2022-08-19T16:56:25.476Z,80.7
2022-08-19T16:57:41.720Z,81.3
2022-08-19T16:58:57.955Z,82.1
2022-08-19T17:00:14.204Z,81.5
2022-08-19T17:01:30.453Z,83
2022-08-19T17:02:45.708Z,82.2
2022-08-19T17:04:01.936Z,83.1
2022-08-19T17:05:18.185Z,82.4
2022-08-19T17:06:34.411Z,81.8
2022-08-19T17:07:50.660Z,82.1
2022-08-19T17:09:06.898Z,80.7
2022-08-19T17:10:23.136Z,81
2022-08-19T17:11:39.342Z,82
2022-08-19T17:12:55.569Z,81.4
2022-08-19T17:14:11.808Z,80.7
2022-08-19T17:15:28.046Z,81.1
2022-08-19T17:16:44.301Z,82.4
2022-08-19T17:18:00.529Z,82
2022-08-19T17:19:16.782Z,81.9
2022-08-19T17:20:32.034Z,82
2022-08-19T17:21:48.268Z,83.8
2022-08-19T17:23:04.522Z,83.6
2022-08-19T17:24:20.758Z,82.8
2022-08-19T17:25:36.996Z,82.3
2022-08-19T17:26:53.234Z,82.7
2022-08-19T17:28:09.465Z,82.4
2022-08-19T17:29:25.712Z,82.1
2022-08-19T17:30:41.948Z,83.2
2022-08-19T17:31:58.187Z,81.8
2022-08-19T17:33:14.424Z,83.7
2022-08-19T17:34:30.667Z,82.6
2022-08-19T17:37:03.158Z,84.3
2022-08-19T17:38:18.401Z,83.3
2022-08-19T17:39:34.656Z,82.6
2022-08-19T17:40:50.882Z,82.9
2022-08-19T17:42:07.128Z,83.5
2022-08-19T17:43:23.381Z,84.2
2022-08-19T17:44:39.601Z,84.1
2022-08-19T17:45:55.849Z,84.2
2022-08-19T17:47:12.104Z,82.7
2022-08-19T17:48:28.331Z,83.6
2022-08-19T17:49:44.579Z,86.6
2022-08-19T17:52:17.048Z,84.1
2022-08-19T17:53:33.288Z,83.5
2022-08-19T17:54:48.539Z,83.8
2022-08-19T17:56:04.787Z,83.4
2022-08-19T17:57:21.020Z,82.9
2022-08-19T17:59:53.513Z,84
2022-08-19T18:01:08.768Z,83
2022-08-19T18:02:24.036Z,85
2022-08-19T18:03:40.262Z,83.5
2022-08-19T18:04:56.503Z,83.6
2022-08-19T18:06:12.748Z,84.7
2022-08-19T18:07:28.990Z,85.7